Time;durP1;ratioP1;P1;durP2;ratioP2;P2;SDS_P1;SDS_P2;PMS_P1;PMS_P2;Temp;Humidity;BMP_temperature;BMP_pressure;BME280_temperature;BME280_humidity;BME280_pressure;Samples;Min_cycle;Max_cycle;Signal;HPM_P1;HPM_P2
2022/07/11 00:01:35;;;;;;;5.40;1.70;;;17.90;99.90;;;;;;5099811;27;20052;-65
2022/07/11 00:04:01;;;;;;;7.38;1.95;;;17.80;99.90;;;;;;5101252;28;20067;-64
2022/07/11 00:06:26;;;;;;;7.25;2.10;;;17.80;99.90;;;;;;5101413;28;20167;-64
2022/07/11 00:08:52;;;;;;;6.72;1.90;;;17.80;99.90;;;;;;5101024;27;20051;-64
2022/07/11 00:11:17;;;;;;;6.50;1.80;;;17.70;99.90;;;;;;5102158;28;20751;-65
2022/07/11 00:13:43;;;;;;;5.05;1.73;;;17.70;99.90;;;;;;5099650;28;20039;-65
2022/07/11 00:16:09;;;;;;;6.05;1.63;;;17.80;99.90;;;;;;5100684;27;20032;-65
2022/07/11 00:18:34;;;;;;;5.15;1.88;;;17.80;99.90;;;;;;5102663;27;20043;-65
2022/07/11 00:21:00;;;;;;;7.22;1.80;;;17.70;99.90;;;;;;5100902;28;20141;-65
2022/07/11 00:23:25;;;;;;;5.90;1.98;;;17.80;99.90;;;;;;5102273;28;20047;-64
2022/07/11 00:25:51;;;;;;;3.60;1.70;;;17.80;99.90;;;;;;5099710;27;20382;-64
2022/07/11 00:28:16;;;;;;;4.93;1.70;;;17.80;99.90;;;;;;5102346;28;20074;-65
2022/07/11 00:30:42;;;;;;;6.03;1.77;;;17.80;99.90;;;;;;5101519;28;20051;-65
2022/07/11 00:33:07;;;;;;;6.30;1.75;;;17.80;99.90;;;;;;5097512;28;20079;-65
2022/07/11 00:35:33;;;;;;;4.45;1.67;;;17.70;99.90;;;;;;5099806;27;20060;-65
2022/07/11 00:37:59;;;;;;;3.88;1.80;;;17.70;99.90;;;;;;5098516;27;20044;-65
2022/07/11 00:40:25;;;;;;;6.47;1.88;;;17.80;99.90;;;;;;5098101;28;20051;-65
2022/07/11 00:42:50;;;;;;;4.97;1.90;;;17.70;99.90;;;;;;5098518;28;20126;-65
2022/07/11 00:45:16;;;;;;;5.40;1.92;;;17.70;99.90;;;;;;5097323;27;20054;-65
2022/07/11 00:47:41;;;;;;;6.50;2.35;;;17.70;99.90;;;;;;5097023;27;20054;-65
2022/07/11 00:50:07;;;;;;;5.05;2.17;;;17.60;99.90;;;;;;5098132;27;20090;-64
2022/07/11 00:52:34;;;;;;;5.20;2.20;;;17.60;99.90;;;;;;5095823;27;20151;-64
2022/07/11 00:55:01;;;;;;;5.00;1.98;;;17.60;99.90;;;;;;5094211;27;20324;-65
2022/07/11 00:57:27;;;;;;;5.90;2.00;;;17.60;99.90;;;;;;5096626;28;20126;-65
2022/07/11 00:59:53;;;;;;;4.28;1.95;;;17.50;99.90;;;;;;5096784;27;20039;-65
2022/07/11 01:02:18;;;;;;;5.38;2.00;;;17.40;99.90;;;;;;5094540;28;20040;-64
2022/07/11 01:04:44;;;;;;;5.22;1.83;;;17.40;99.90;;;;;;5095982;28;20048;-65
2022/07/11 01:07:10;;;;;;;4.68;1.67;;;17.40;99.90;;;;;;5099470;28;20632;-64
2022/07/11 01:09:35;;;;;;;4.97;1.88;;;17.40;99.90;;;;;;5096030;27;20430;-65
2022/07/11 01:12:01;;;;;;;5.47;2.13;;;17.40;99.90;;;;;;5095895;27;20047;-65
2022/07/11 01:14:27;;;;;;;4.45;1.90;;;17.40;99.90;;;;;;5098250;27;22475;-65
2022/07/11 01:16:53;;;;;;;4.13;1.90;;;17.40;99.90;;;;;;5096165;27;20117;-65
2022/07/11 01:19:18;;;;;;;6.28;2.00;;;17.50;99.90;;;;;;5095045;27;20112;-65
2022/07/11 01:21:49;;;;;;;3.28;1.70;;;17.50;99.90;;;;;;5099099;27;20112;-65
2022/07/11 01:24:15;;;;;;;4.75;1.60;;;17.50;99.90;;;;;;5098642;28;20105;-65
2022/07/11 01:26:42;;;;;;;3.95;1.80;;;17.50;99.90;;;;;;5095904;27;20043;-65
2022/07/11 01:29:13;;;;;;;6.70;2.00;;;17.50;99.90;;;;;;5098047;28;22062;-65
2022/07/11 01:31:40;;;;;;;4.57;1.73;;;17.40;99.90;;;;;;5095548;27;20043;-65
2022/07/11 01:34:05;;;;;;;4.75;1.98;;;17.40;99.90;;;;;;5099720;27;20078;-65
2022/07/11 01:36:31;;;;;;;6.07;2.28;;;17.40;99.90;;;;;;5096427;28;20063;-65
2022/07/11 01:38:57;;;;;;;3.78;1.85;;;17.40;99.90;;;;;;5100090;27;20806;-65
2022/07/11 01:41:23;;;;;;;4.63;2.00;;;17.40;99.90;;;;;;5097427;27;20574;-65
2022/07/11 01:43:48;;;;;;;4.50;1.70;;;17.30;99.90;;;;;;5096053;27;20074;-65
2022/07/11 01:46:16;;;;;;;4.03;1.65;;;17.30;99.90;;;;;;5097312;28;20086;-65
2022/07/11 01:48:42;;;;;;;4.88;1.90;;;17.30;99.90;;;;;;5095849;27;20094;-64
2022/07/11 01:51:07;;;;;;;5.75;1.77;;;17.30;99.90;;;;;;5094503;27;20122;-65
2022/07/11 01:53:33;;;;;;;5.45;2.13;;;17.30;99.90;;;;;;5094490;28;20383;-65
2022/07/11 01:55:58;;;;;;;4.18;2.10;;;17.30;99.90;;;;;;5094678;27;20162;-65
2022/07/11 01:58:24;;;;;;;3.38;1.83;;;17.30;99.90;;;;;;5093642;27;20048;-65
2022/07/11 02:00:50;;;;;;;4.72;1.92;;;17.30;99.90;;;;;;5097863;27;20847;-65
2022/07/11 02:03:16;;;;;;;5.05;1.98;;;17.30;99.90;;;;;;5099415;28;20040;-65
2022/07/11 02:05:42;;;;;;;4.47;2.17;;;17.20;99.90;;;;;;5097029;27;20122;-65
2022/07/11 02:08:14;;;;;;;5.05;1.85;;;17.30;99.90;;;;;;5101312;27;20135;-65
2022/07/11 02:10:46;;;;;;;4.60;2.25;;;17.30;99.90;;;;;;5101984;28;20051;-65
2022/07/11 02:13:14;;;;;;;5.60;2.20;;;17.30;99.90;;;;;;5098764;27;21367;-65
2022/07/11 02:15:41;;;;;;;4.05;2.20;;;17.30;99.90;;;;;;5096740;27;20442;-65
2022/07/11 02:18:07;;;;;;;5.03;2.30;;;17.30;99.90;;;;;;5096744;28;20055;-65
2022/07/11 02:20:33;;;;;;;4.50;2.40;;;17.20;99.90;;;;;;5096925;27;20376;-65
2022/07/11 02:22:59;;;;;;;8.45;3.13;;;17.20;99.90;;;;;;5095434;28;20155;-65
2022/07/11 02:25:25;;;;;;;5.97;2.58;;;17.20;99.90;;;;;;5099605;28;20606;-67
2022/07/11 02:27:51;;;;;;;7.63;2.95;;;17.20;99.90;;;;;;5096500;28;20055;-65
2022/07/11 02:30:16;;;;;;;6.60;2.70;;;17.20;99.90;;;;;;5096716;27;20951;-65
2022/07/11 02:32:42;;;;;;;5.63;2.55;;;17.20;99.90;;;;;;5100780;28;20040;-65
2022/07/11 02:35:08;;;;;;;5.07;2.80;;;17.20;99.90;;;;;;5094639;27;20062;-65
2022/07/11 02:37:34;;;;;;;7.35;2.90;;;17.20;99.90;;;;;;5095558;27;20059;-65
2022/07/11 02:40:00;;;;;;;6.53;2.72;;;17.20;99.90;;;;;;5098266;27;20793;-65
2022/07/11 02:42:25;;;;;;;7.13;2.83;;;17.20;99.90;;;;;;5096817;27;20134;-65
2022/07/11 02:44:51;;;;;;;7.05;3.15;;;17.10;99.90;;;;;;5096984;27;20044;-65
2022/07/11 02:47:17;;;;;;;5.63;2.70;;;17.20;99.90;;;;;;5093479;28;20054;-64
2022/07/11 02:49:42;;;;;;;7.43;2.80;;;17.20;99.90;;;;;;5090371;28;20942;-65
2022/07/11 02:52:08;;;;;;;6.35;2.95;;;17.10;99.90;;;;;;5096481;28;20039;-65
2022/07/11 02:54:34;;;;;;;8.57;3.20;;;17.10;99.90;;;;;;5093404;28;20159;-65
2022/07/11 02:57:00;;;;;;;9.32;3.40;;;17.00;99.90;;;;;;5095650;28;20039;-65
2022/07/11 02:59:26;;;;;;;7.35;3.00;;;17.10;99.90;;;;;;5095218;28;20557;-65
2022/07/11 03:01:52;;;;;;;8.25;3.50;;;17.00;99.90;;;;;;5096418;28;20040;-65
2022/07/11 03:04:17;;;;;;;7.60;3.42;;;16.90;99.90;;;;;;5100827;28;20043;-65
2022/07/11 03:06:43;;;;;;;7.78;3.45;;;16.90;99.90;;;;;;5099091;28;20050;-65
2022/07/11 03:09:09;;;;;;;9.05;3.75;;;16.90;99.90;;;;;;5103000;28;20046;-65
2022/07/11 03:11:36;;;;;;;9.82;3.85;;;16.90;99.90;;;;;;5098832;28;20043;-65
2022/07/11 03:14:02;;;;;;;6.63;3.47;;;16.90;99.90;;;;;;5097290;28;20066;-65
2022/07/11 03:16:28;;;;;;;8.70;3.70;;;16.90;99.90;;;;;;5098477;27;20047;-65
2022/07/11 03:18:54;;;;;;;6.60;3.05;;;16.90;99.90;;;;;;5098555;28;20454;-65
2022/07/11 03:21:20;;;;;;;8.45;3.30;;;16.90;99.90;;;;;;5097509;28;20062;-65
2022/07/11 03:23:45;;;;;;;7.50;3.25;;;16.90;99.90;;;;;;5099686;28;21762;-65
2022/07/11 03:26:11;;;;;;;6.38;3.17;;;16.90;99.90;;;;;;5099686;28;20217;-65
2022/07/11 03:28:37;;;;;;;6.72;3.40;;;16.90;99.90;;;;;;5098748;28;20086;-65
2022/07/11 03:31:02;;;;;;;6.88;3.20;;;16.90;99.90;;;;;;5098846;28;20074;-65
2022/07/11 03:33:28;;;;;;;7.13;3.85;;;16.90;99.90;;;;;;5096783;28;20802;-65
2022/07/11 03:35:54;;;;;;;5.90;3.40;;;16.90;99.90;;;;;;5099402;28;20103;-65
2022/07/11 03:38:20;;;;;;;7.28;3.35;;;16.90;99.90;;;;;;5101865;28;20053;-65
2022/07/11 03:40:47;;;;;;;8.05;3.55;;;16.90;99.90;;;;;;5098019;28;20040;-65
2022/07/11 03:43:16;;;;;;;6.03;3.60;;;16.90;99.90;;;;;;5100979;28;20036;-65
2022/07/11 03:45:42;;;;;;;5.30;3.13;;;16.80;99.90;;;;;;5094579;28;20529;-65
2022/07/11 03:48:08;;;;;;;8.02;3.80;;;16.90;99.90;;;;;;5096753;28;20123;-65
2022/07/11 03:50:35;;;;;;;6.40;3.47;;;16.90;99.90;;;;;;5100006;28;20127;-65
2022/07/11 03:53:01;;;;;;;6.07;3.35;;;16.90;99.90;;;;;;5098933;28;20048;-65
2022/07/11 03:55:28;;;;;;;6.60;3.47;;;16.90;99.90;;;;;;5099126;28;20047;-65
2022/07/11 03:57:53;;;;;;;6.70;3.25;;;16.90;99.90;;;;;;5098673;28;20074;-65
2022/07/11 04:00:20;;;;;;;7.55;3.30;;;17.00;99.90;;;;;;5097579;28;20040;-65
2022/07/11 04:02:46;;;;;;;8.40;3.70;;;16.90;99.90;;;;;;5094992;28;20489;-65
2022/07/11 04:05:12;;;;;;;8.15;4.32;;;16.90;99.90;;;;;;5096989;28;20067;-64
2022/07/11 04:07:38;;;;;;;6.63;3.58;;;16.90;99.90;;;;;;5098851;28;20466;-65
2022/07/11 04:10:04;;;;;;;8.85;3.70;;;16.80;99.90;;;;;;5100889;28;20153;-64
2022/07/11 04:12:29;;;;;;;7.72;3.40;;;16.80;99.90;;;;;;5100576;28;20044;-64
2022/07/11 04:14:55;;;;;;;8.02;3.35;;;16.80;99.90;;;;;;5094584;28;20040;-65
2022/07/11 04:17:21;;;;;;;7.43;3.95;;;16.90;99.90;;;;;;5106190;28;20040;-65
2022/07/11 04:19:46;;;;;;;7.68;3.67;;;16.90;99.90;;;;;;5108005;28;20090;-64
2022/07/11 04:22:12;;;;;;;8.02;3.85;;;16.90;99.90;;;;;;5105319;28;20250;-64
2022/07/11 04:24:38;;;;;;;7.88;3.40;;;16.90;99.90;;;;;;5107064;28;20058;-64
2022/07/11 04:27:04;;;;;;;8.32;3.55;;;16.90;99.90;;;;;;5105180;28;20105;-64
2022/07/11 04:29:30;;;;;;;6.63;3.50;;;16.80;99.90;;;;;;5104755;28;20042;-64
2022/07/11 04:31:55;;;;;;;5.55;3.08;;;16.80;99.90;;;;;;5103339;28;20043;-64
2022/07/11 04:34:21;;;;;;;5.40;3.17;;;16.90;99.90;;;;;;5098073;28;20589;-64
2022/07/11 04:36:46;;;;;;;8.18;3.10;;;16.90;99.90;;;;;;5102601;28;20036;-64
2022/07/11 04:39:12;;;;;;;7.72;3.45;;;16.90;99.90;;;;;;5104504;28;20458;-64
2022/07/11 04:41:38;;;;;;;5.97;2.88;;;16.90;99.90;;;;;;5104586;28;20040;-64
2022/07/11 04:44:04;;;;;;;6.72;2.42;;;16.90;99.90;;;;;;5105505;28;20039;-64
2022/07/11 04:46:31;;;;;;;4.60;2.58;;;16.90;99.90;;;;;;5106087;28;20036;-64
2022/07/11 04:48:57;;;;;;;5.88;2.60;;;16.80;99.90;;;;;;5108875;28;20531;-63
2022/07/11 04:51:24;;;;;;;4.38;2.20;;;16.80;99.90;;;;;;5107590;28;20462;-63
2022/07/11 04:53:50;;;;;;;5.35;2.17;;;16.70;99.90;;;;;;5108771;28;20050;-64
2022/07/11 04:56:15;;;;;;;4.68;2.10;;;16.80;99.90;;;;;;5100561;28;20082;-64
2022/07/11 04:58:41;;;;;;;3.53;1.90;;;16.80;99.90;;;;;;5100063;28;20123;-64
2022/07/11 05:01:07;;;;;;;4.53;2.03;;;16.80;99.90;;;;;;5100395;28;20116;-64
2022/07/11 05:03:32;;;;;;;4.95;2.20;;;16.90;99.90;;;;;;5102371;28;20036;-64
2022/07/11 05:05:58;;;;;;;4.50;2.45;;;16.90;99.90;;;;;;5099392;28;20051;-64
2022/07/11 05:08:24;;;;;;;4.68;2.35;;;17.00;99.90;;;;;;5104031;28;20153;-64
2022/07/11 05:10:50;;;;;;;4.32;2.30;;;17.10;99.90;;;;;;5097762;28;20043;-64
2022/07/11 05:13:15;;;;;;;5.13;2.00;;;17.10;99.90;;;;;;5101026;28;20134;-65
2022/07/11 05:15:42;;;;;;;4.97;2.20;;;17.20;99.90;;;;;;5099942;28;20370;-65
2022/07/11 05:18:08;;;;;;;3.22;1.63;;;17.30;99.90;;;;;;5101391;28;20071;-65
2022/07/11 05:20:33;;;;;;;5.35;1.98;;;17.40;99.90;;;;;;5101483;28;20135;-65
2022/07/11 05:22:59;;;;;;;3.78;1.88;;;17.40;99.90;;;;;;5099018;28;20051;-64
2022/07/11 05:25:25;;;;;;;5.85;1.80;;;17.50;99.90;;;;;;5099986;28;20109;-65
2022/07/11 05:27:51;;;;;;;4.18;1.80;;;17.50;99.90;;;;;;5098874;28;20134;-65
2022/07/11 05:30:17;;;;;;;3.88;1.52;;;17.60;99.90;;;;;;5101299;28;20067;-65
2022/07/11 05:32:42;;;;;;;3.15;1.60;;;17.60;99.90;;;;;;5100893;27;20200;-66
2022/07/11 05:35:08;;;;;;;2.63;1.50;;;17.60;99.90;;;;;;5105050;28;20044;-65
2022/07/11 05:37:34;;;;;;;3.65;1.95;;;17.60;99.90;;;;;;5104067;27;20049;-65
2022/07/11 05:39:59;;;;;;;3.33;1.30;;;17.60;99.90;;;;;;5103880;27;20039;-64
2022/07/11 05:42:25;;;;;;;3.25;1.75;;;17.70;99.90;;;;;;5099504;28;20043;-65
2022/07/11 05:44:50;;;;;;;3.17;1.40;;;17.80;99.90;;;;;;5104309;28;20051;-64
2022/07/11 05:47:17;;;;;;;2.70;1.33;;;17.90;99.90;;;;;;5102354;27;20272;-64
2022/07/11 05:49:42;;;;;;;3.00;1.20;;;18.00;99.90;;;;;;5106476;28;20130;-64
2022/07/11 05:52:08;;;;;;;3.00;1.15;;;18.10;99.90;;;;;;5103641;28;20099;-65
2022/07/11 05:54:34;;;;;;;2.90;1.40;;;18.30;99.90;;;;;;5104624;28;20060;-65
2022/07/11 05:57:03;;;;;;;3.03;1.40;;;18.30;99.90;;;;;;5106371;27;20778;-64
2022/07/11 05:59:29;;;;;;;4.22;1.40;;;18.40;99.90;;;;;;5102820;28;20035;-65
2022/07/11 06:01:55;;;;;;;2.25;1.00;;;18.40;99.90;;;;;;5104761;28;20366;-65
2022/07/11 06:04:20;;;;;;;3.15;1.15;;;18.50;99.90;;;;;;5107302;28;20139;-64
2022/07/11 06:06:46;;;;;;;2.60;1.10;;;18.50;99.90;;;;;;5106187;28;20051;-64
2022/07/11 06:09:12;;;;;;;3.42;1.08;;;18.50;99.90;;;;;;5102775;28;20078;-64
2022/07/11 06:11:38;;;;;;;1.80;1.00;;;18.70;99.90;;;;;;5110323;28;20100;-64
2022/07/11 06:14:05;;;;;;;2.25;0.98;;;18.70;99.90;;;;;;5104331;28;20039;-64
2022/07/11 06:16:31;;;;;;;1.50;0.80;;;18.60;99.90;;;;;;5109573;28;20367;-64
2022/07/11 06:18:57;;;;;;;3.67;1.05;;;18.60;99.90;;;;;;5103953;28;20069;-64
2022/07/11 06:21:23;;;;;;;1.52;0.93;;;18.60;99.90;;;;;;5105718;28;20101;-64
2022/07/11 06:23:49;;;;;;;2.67;1.10;;;18.50;99.90;;;;;;5111059;28;20071;-64
2022/07/11 06:26:15;;;;;;;1.30;0.82;;;18.60;99.90;;;;;;5109908;28;20043;-66
2022/07/11 06:28:41;;;;;;;3.13;1.00;;;18.60;99.90;;;;;;5103351;28;20164;-65
2022/07/11 06:31:07;;;;;;;2.22;0.80;;;18.70;99.90;;;;;;5105940;28;20470;-65
2022/07/11 06:33:34;;;;;;;1.80;0.93;;;18.80;99.90;;;;;;5109553;28;20040;-65
2022/07/11 06:36:01;;;;;;;1.23;0.60;;;18.80;99.90;;;;;;5107600;28;20036;-65
2022/07/11 06:38:28;;;;;;;1.02;0.60;;;18.90;99.90;;;;;;5108159;28;20046;-65
2022/07/11 06:40:54;;;;;;;1.00;0.60;;;19.00;99.90;;;;;;5109448;28;20047;-66
2022/07/11 06:43:19;;;;;;;1.38;0.80;;;19.00;99.90;;;;;;5109202;28;20040;-65
2022/07/11 06:45:46;;;;;;;0.40;0.30;;;19.10;99.90;;;;;;5108093;28;20043;-65
2022/07/11 06:48:12;;;;;;;1.35;0.50;;;19.10;99.90;;;;;;5096735;28;20043;-67
2022/07/11 06:50:37;;;;;;;1.17;0.60;;;19.00;99.90;;;;;;5108889;28;20423;-67
2022/07/11 06:53:03;;;;;;;1.15;0.50;;;19.10;99.90;;;;;;5108154;28;20055;-67
2022/07/11 06:55:30;;;;;;;0.65;0.45;;;19.00;99.90;;;;;;5107447;28;20108;-67
2022/07/11 06:57:56;;;;;;;1.40;0.50;;;19.00;99.90;;;;;;5109983;28;20080;-64
2022/07/11 07:00:21;;;;;;;0.98;0.57;;;18.90;99.90;;;;;;5107699;28;20048;-64
2022/07/11 07:02:47;;;;;;;0.40;0.40;;;19.00;99.90;;;;;;5109587;28;20382;-64
2022/07/11 07:05:12;;;;;;;3.72;0.77;;;19.00;99.90;;;;;;5109504;28;20101;-63
2022/07/11 07:07:38;;;;;;;0.77;0.40;;;18.90;99.90;;;;;;5107746;28;20044;-63
2022/07/11 07:10:04;;;;;;;1.45;0.70;;;18.90;99.90;;;;;;5108472;28;20042;-63
2022/07/11 07:12:30;;;;;;;2.03;0.55;;;18.80;99.90;;;;;;5104090;28;20028;-64
2022/07/11 07:14:55;;;;;;;0.57;0.38;;;19.00;99.90;;;;;;5106886;28;20043;-64
2022/07/11 07:17:21;;;;;;;1.05;0.50;;;19.00;99.90;;;;;;5105620;28;20159;-64
2022/07/11 07:19:47;;;;;;;1.88;0.52;;;19.20;99.90;;;;;;5107880;28;20035;-65
2022/07/11 07:22:16;;;;;;;1.08;0.50;;;19.30;99.90;;;;;;5104101;28;20413;-64
2022/07/11 07:24:45;;;;;;;1.30;0.52;;;19.40;99.90;;;;;;5104803;28;20123;-64
2022/07/11 07:27:11;;;;;;;2.55;0.70;;;19.60;99.90;;;;;;5108004;28;20327;-64
2022/07/11 07:29:36;;;;;;;2.30;0.60;;;19.60;99.90;;;;;;5107642;28;20051;-64
2022/07/11 07:32:02;;;;;;;1.00;0.50;;;19.60;99.90;;;;;;5106182;28;20039;-64
2022/07/11 07:34:28;;;;;;;1.48;0.50;;;19.50;99.90;;;;;;5105726;28;20059;-63
2022/07/11 07:36:54;;;;;;;1.88;0.65;;;19.40;99.90;;;;;;5107932;28;20051;-64
2022/07/11 07:39:19;;;;;;;1.33;0.77;;;19.50;99.90;;;;;;5107613;28;20066;-64
2022/07/11 07:41:45;;;;;;;1.75;0.73;;;19.50;99.90;;;;;;5108472;28;20042;-64
2022/07/11 07:44:11;;;;;;;2.13;0.60;;;19.50;99.90;;;;;;5106046;28;20089;-64
2022/07/11 07:46:36;;;;;;;1.30;0.68;;;19.40;99.90;;;;;;5104674;28;20141;-64
2022/07/11 07:49:02;;;;;;;1.55;0.70;;;19.40;99.90;;;;;;5106221;28;20043;-64
2022/07/11 07:51:28;;;;;;;2.03;0.70;;;19.40;99.90;;;;;;5106978;28;20525;-64
2022/07/11 07:53:54;;;;;;;1.55;0.73;;;19.50;99.90;;;;;;5107459;28;20135;-64
2022/07/11 07:56:20;;;;;;;2.92;0.70;;;19.60;99.90;;;;;;5107801;28;20184;-64
2022/07/11 07:58:46;;;;;;;1.40;0.60;;;19.70;99.90;;;;;;5107381;28;20157;-64
2022/07/11 08:03:56;;;;;;;0.75;0.40;;;19.80;99.90;;;;;;5106535;28;20407;-64
2022/07/11 08:06:22;;;;;;;1.98;0.60;;;19.60;99.90;;;;;;5107508;28;20071;-64
2022/07/11 08:08:47;;;;;;;0.63;0.40;;;19.60;99.90;;;;;;5109672;28;20401;-64
2022/07/11 08:11:13;;;;;;;1.00;0.50;;;19.60;99.90;;;;;;5107038;28;20043;-64
2022/07/11 08:13:39;;;;;;;1.15;0.47;;;19.70;99.90;;;;;;5107805;28;20094;-64
2022/07/11 08:16:06;;;;;;;0.80;0.40;;;19.90;99.90;;;;;;5104911;28;20418;-64
2022/07/11 08:18:32;;;;;;;1.23;0.50;;;20.20;99.90;;;;;;5107627;28;20047;-64
2022/07/11 08:20:58;;;;;;;0.77;0.30;;;20.30;99.90;;;;;;5109408;28;20493;-64
2022/07/11 08:23:24;;;;;;;0.63;0.35;;;20.30;99.90;;;;;;5110405;28;20139;-64
2022/07/11 08:25:50;;;;;;;1.30;0.32;;;20.40;99.90;;;;;;5101086;28;20047;-64
2022/07/11 08:28:15;;;;;;;0.75;0.30;;;20.60;99.90;;;;;;5111431;28;20405;-64
2022/07/11 08:30:41;;;;;;;0.47;0.40;;;20.70;99.90;;;;;;5108947;28;20040;-64
2022/07/11 08:33:06;;;;;;;1.58;0.60;;;20.80;99.90;;;;;;5110456;28;20044;-64
2022/07/11 08:35:32;;;;;;;1.50;0.60;;;20.80;99.90;;;;;;5109819;28;20067;-64
2022/07/11 08:37:57;;;;;;;0.88;0.55;;;20.80;99.90;;;;;;5110360;28;20042;-64
2022/07/11 08:40:23;;;;;;;1.00;0.30;;;20.70;99.90;;;;;;5110405;28;20038;-64
2022/07/11 08:42:49;;;;;;;1.48;0.50;;;20.50;99.90;;;;;;5108633;28;20343;-64
2022/07/11 08:45:15;;;;;;;1.05;0.45;;;20.40;99.90;;;;;;5109954;28;20056;-64
2022/07/11 08:47:43;;;;;;;1.98;0.40;;;20.40;99.90;;;;;;5109684;28;20051;-64
2022/07/11 08:50:12;;;;;;;1.00;0.40;;;20.40;99.90;;;;;;5109718;28;20035;-64
2022/07/11 08:52:38;;;;;;;0.57;0.30;;;20.20;99.90;;;;;;5112856;28;20494;-64
2022/07/11 08:55:07;;;;;;;2.33;0.55;;;20.20;99.90;;;;;;5110164;28;20093;-64
2022/07/11 08:57:36;;;;;;;1.30;0.43;;;20.10;99.90;;;;;;5110753;28;20122;-64
2022/07/11 09:00:05;;;;;;;1.60;0.47;;;20.10;99.90;;;;;;5108562;28;20564;-64
2022/07/11 09:02:32;;;;;;;0.57;0.40;;;20.20;99.90;;;;;;5098626;28;20166;-64
2022/07/11 09:04:59;;;;;;;1.60;0.50;;;20.30;99.90;;;;;;5102814;28;20161;-64
2022/07/11 09:07:26;;;;;;;1.92;0.70;;;20.50;99.90;;;;;;5111625;28;20056;-64
2022/07/11 09:09:52;;;;;;;1.35;0.50;;;20.80;99.90;;;;;;5107254;28;20055;-64
2022/07/11 09:12:19;;;;;;;0.77;0.45;;;21.10;99.90;;;;;;5110277;28;20043;-64
2022/07/11 09:14:47;;;;;;;1.65;0.60;;;21.40;99.90;;;;;;5110373;28;20077;-64
2022/07/11 09:17:13;;;;;;;1.75;0.40;;;21.50;99.90;;;;;;5108061;28;20490;-64
2022/07/11 09:19:39;;;;;;;0.70;0.35;;;21.70;99.90;;;;;;5107815;28;20031;-64
2022/07/11 09:27:49;;;;;;;0.32;0.30;;;21.90;99.90;;;;;;5111320;28;20054;-64
2022/07/11 09:30:16;;;;;;;1.08;0.38;;;21.70;99.90;;;;;;5106869;28;20040;-63
2022/07/11 09:32:55;;;;;;;0.20;0.20;;;21.50;99.90;;;;;;5109915;28;20186;-64
2022/07/11 09:35:22;;;;;;;0.30;0.28;;;21.40;99.90;;;;;;5103749;28;20062;-64
2022/07/11 09:37:48;;;;;;;0.28;0.28;;;21.30;99.90;;;;;;5109786;28;20467;-64
2022/07/11 09:40:14;;;;;;;0.80;0.40;;;21.20;99.90;;;;;;5109249;28;20048;-63
2022/07/11 09:42:50;;;;;;;0.30;0.30;;;21.00;99.90;;;;;;5109045;28;20040;-64
2022/07/11 09:45:17;;;;;;;0.88;0.47;;;20.90;99.90;;;;;;5105472;28;20130;-64
2022/07/11 09:47:47;;;;;;;0.93;0.50;;;21.00;99.90;;;;;;5109989;28;20077;-64
2022/07/11 09:50:17;;;;;;;1.25;0.20;;;21.30;99.90;;;;;;5108445;28;20040;-64
2022/07/11 09:52:57;;;;;;;0.38;0.30;;;21.40;99.90;;;;;;5106721;28;20459;-63
2022/07/11 09:55:24;;;;;;;0.60;0.50;;;21.60;99.90;;;;;;5106620;28;20058;-64
2022/07/11 09:57:49;;;;;;;1.55;0.55;;;21.60;99.90;;;;;;5108739;28;20074;-64
2022/07/11 10:00:15;;;;;;;0.45;0.40;;;21.40;99.90;;;;;;5103425;28;20557;-64
2022/07/11 10:02:41;;;;;;;1.58;0.43;;;21.50;99.90;;;;;;5102957;28;20382;-64
2022/07/11 10:05:07;;;;;;;1.27;0.57;;;21.30;99.90;;;;;;5107228;28;20127;-64
2022/07/11 10:07:32;;;;;;;0.95;0.40;;;21.30;99.90;;;;;;5108696;28;20470;-64
2022/07/11 10:10:00;;;;;;;1.52;0.50;;;21.30;99.90;;;;;;5107378;28;20246;-64
2022/07/11 10:12:27;;;;;;;2.30;0.65;;;21.20;99.90;;;;;;5108204;28;20508;-64
2022/07/11 10:14:54;;;;;;;0.65;0.40;;;21.30;99.90;;;;;;5108499;28;20126;-64
2022/07/11 10:17:44;;;;;;;0.57;0.43;;;21.40;99.90;;;;;;5109082;28;20042;-64
2022/07/11 10:20:45;;;;;;;0.82;0.50;;;21.50;99.90;;;;;;5107114;28;20486;-64
2022/07/11 10:23:29;;;;;;;1.38;0.30;;;21.70;99.90;;;;;;5085584;28;20087;-64
2022/07/11 10:26:15;;;;;;;1.55;0.52;;;21.80;99.90;;;;;;5108184;28;20043;-64
2022/07/11 10:28:54;;;;;;;0.57;0.38;;;21.90;99.90;;;;;;5110865;28;20096;-64
2022/07/11 10:31:22;;;;;;;1.65;0.50;;;22.10;99.90;;;;;;5106888;28;20130;-64
2022/07/11 10:34:05;;;;;;;0.95;0.50;;;22.00;99.90;;;;;;5107477;28;20063;-64
2022/07/11 10:36:32;;;;;;;1.80;0.50;;;22.00;99.90;;;;;;5109047;28;20050;-64
2022/07/11 10:39:24;;;;;;;2.50;0.45;;;22.10;99.90;;;;;;5108177;28;20069;-64
2022/07/11 10:41:51;;;;;;;0.55;0.40;;;22.10;99.90;;;;;;5104272;28;20519;-64
2022/07/11 10:44:17;;;;;;;0.65;0.30;;;22.10;99.90;;;;;;5107939;28;20036;-64
2022/07/11 10:46:43;;;;;;;0.32;0.30;;;22.10;99.90;;;;;;5108122;28;20044;-64
2022/07/11 10:49:15;;;;;;;0.93;0.35;;;22.10;99.90;;;;;;5107058;28;20077;-64
2022/07/11 10:51:41;;;;;;;1.38;0.40;;;22.00;99.90;;;;;;5107534;28;20047;-64
2022/07/11 10:54:42;;;;;;;0.65;0.40;;;21.90;99.90;;;;;;5105856;28;20379;-63
2022/07/11 10:57:21;;;;;;;0.75;0.40;;;22.00;99.90;;;;;;5108104;28;20051;-63
2022/07/11 11:00:09;;;;;;;1.50;0.55;;;22.00;99.90;;;;;;5106969;28;20070;-64
2022/07/11 11:02:59;;;;;;;1.25;0.50;;;22.00;99.90;;;;;;5105665;28;20039;-64
2022/07/11 11:05:48;;;;;;;1.50;0.45;;;22.10;99.90;;;;;;5108470;28;20085;-64
2022/07/11 11:08:35;;;;;;;0.65;0.40;;;22.00;99.90;;;;;;5108490;28;20110;-64
2022/07/11 11:11:29;;;;;;;0.50;0.43;;;22.00;99.90;;;;;;5106974;28;20047;-64
2022/07/11 11:14:25;;;;;;;1.08;0.45;;;22.00;99.90;;;;;;5107998;28;20108;-64
2022/07/11 11:16:51;;;;;;;0.60;0.50;;;22.10;99.90;;;;;;5105555;28;20085;-64
2022/07/11 11:19:48;;;;;;;1.00;0.43;;;22.20;99.90;;;;;;5106963;28;20413;-64
2022/07/11 11:22:15;;;;;;;0.65;0.55;;;22.40;99.90;;;;;;5108474;28;20043;-64
2022/07/11 11:24:43;;;;;;;0.90;0.38;;;22.30;99.90;;;;;;5107079;28;20119;-64
2022/07/11 11:27:17;;;;;;;2.45;0.50;;;22.30;99.90;;;;;;5106825;28;20040;-64
2022/07/11 11:29:43;;;;;;;1.02;0.50;;;22.20;99.90;;;;;;5106105;28;20150;-64
2022/07/11 11:32:09;;;;;;;1.15;0.50;;;22.20;99.90;;;;;;5106692;28;20071;-64
2022/07/11 11:34:36;;;;;;;1.17;0.40;;;22.30;99.90;;;;;;5107522;28;20075;-64
2022/07/11 11:37:01;;;;;;;1.00;0.45;;;22.20;99.90;;;;;;5105914;28;20058;-65
2022/07/11 11:39:35;;;;;;;0.35;0.20;;;22.30;99.90;;;;;;5105542;28;20047;-64
2022/07/11 11:42:17;;;;;;;0.70;0.20;;;22.50;99.90;;;;;;5107787;28;20040;-64
2022/07/11 11:45:01;;;;;;;1.42;0.40;;;22.60;99.90;;;;;;5091827;28;20043;-64
2022/07/11 11:47:31;;;;;;;1.83;0.70;;;22.50;99.90;;;;;;5106484;28;20091;-64
2022/07/11 11:49:57;;;;;;;1.10;0.60;;;22.60;99.90;;;;;;5106492;28;20475;-64
2022/07/11 11:52:24;;;;;;;0.73;0.40;;;22.60;99.90;;;;;;5106678;28;20046;-64
2022/07/11 11:54:55;;;;;;;0.85;0.50;;;22.60;99.90;;;;;;5110203;28;20508;-64
2022/07/11 11:57:23;;;;;;;1.15;0.60;;;22.60;99.90;;;;;;5111270;28;20038;-64
2022/07/11 11:59:50;;;;;;;0.93;0.50;;;22.60;99.90;;;;;;5109357;28;20489;-64
2022/07/11 12:02:28;;;;;;;0.50;0.30;;;22.50;99.90;;;;;;5111496;28;20252;-64
2022/07/11 12:04:54;;;;;;;1.70;0.57;;;22.70;99.90;;;;;;5110990;28;20047;-63
2022/07/11 12:07:28;;;;;;;2.00;0.63;;;22.70;99.90;;;;;;5111084;28;20156;-63
2022/07/11 12:09:55;;;;;;;1.33;0.50;;;22.60;99.90;;;;;;5110697;28;20047;-65
2022/07/11 12:15:25;;;;;;;0.75;0.47;;;22.80;99.90;;;;;;5109491;28;20055;-64
2022/07/11 12:17:52;;;;;;;0.80;0.50;;;22.90;99.90;;;;;;5111512;28;20119;-65
2022/07/11 12:20:37;;;;;;;0.77;0.40;;;23.10;99.90;;;;;;5109635;28;20063;-65
2022/07/11 12:23:08;;;;;;;0.50;0.50;;;23.20;99.90;;;;;;5111618;28;20375;-65
2022/07/11 12:25:34;;;;;;;1.05;0.40;;;23.50;99.90;;;;;;5110482;28;20473;-64
2022/07/11 12:28:00;;;;;;;1.35;0.55;;;23.50;99.90;;;;;;5110514;28;20171;-65
2022/07/11 12:30:25;;;;;;;0.45;0.30;;;23.60;99.90;;;;;;5109280;28;20170;-65
2022/07/11 12:33:05;;;;;;;0.73;0.40;;;23.50;99.90;;;;;;5109346;28;20051;-65
2022/07/11 12:35:30;;;;;;;1.10;0.60;;;23.60;99.90;;;;;;5110523;28;20102;-64
2022/07/11 12:37:56;;;;;;;1.40;0.60;;;23.60;99.90;;;;;;5110456;28;20083;-64
2022/07/11 12:40:21;;;;;;;1.80;0.45;;;23.60;99.90;;;;;;5109747;28;20044;-64
2022/07/11 12:42:47;;;;;;;0.90;0.50;;;23.60;99.90;;;;;;5110566;28;20127;-64
2022/07/11 12:45:15;;;;;;;1.73;0.60;;;23.70;99.90;;;;;;5108626;28;20120;-65
2022/07/11 12:47:49;;;;;;;0.52;0.50;;;23.60;99.90;;;;;;5110088;28;20039;-65
2022/07/11 12:50:17;;;;;;;2.15;0.65;;;23.70;99.90;;;;;;5108115;28;20043;-65
2022/07/11 12:52:45;;;;;;;1.40;0.98;;;23.40;99.90;;;;;;5111644;28;20342;-65
2022/07/11 12:55:19;;;;;;;1.30;0.50;;;23.50;99.90;;;;;;5110610;28;20470;-65
2022/07/11 12:58:00;;;;;;;1.73;0.65;;;23.20;99.90;;;;;;5107964;28;20447;-64
2022/07/11 13:00:26;;;;;;;1.00;0.60;;;23.10;99.90;;;;;;5109197;28;20043;-65
2022/07/11 13:02:52;;;;;;;1.33;0.50;;;23.10;99.90;;;;;;5109113;28;20450;-64